sensor_id;sensor_type;location;lat;lon;timestamp;P1;durP1;ratioP1;P2;durP2;ratioP2
79697;SDS011;69168;42.708;23.286;2024-03-23T00:53:36;20.20;;;8.90;;
79697;SDS011;69168;42.708;23.286;2024-03-23T00:56:02;15.68;;;8.30;;
79697;SDS011;69168;42.708;23.286;2024-03-23T00:58:28;14.90;;;7.97;;
79697;SDS011;69168;42.708;23.286;2024-03-23T01:00:56;17.58;;;8.95;;
79697;SDS011;69168;42.708;23.286;2024-03-23T01:03:22;17.23;;;8.00;;
79697;SDS011;69168;42.708;23.286;2024-03-23T01:05:47;18.58;;;9.00;;
79697;SDS011;69168;42.708;23.286;2024-03-23T01:08:14;19.08;;;8.88;;
79697;SDS011;69168;42.708;23.286;2024-03-23T01:10:40;20.80;;;8.50;;
79697;SDS011;69168;42.708;23.286;2024-03-23T01:13:05;17.40;;;8.93;;
79697;SDS011;69168;42.708;23.286;2024-03-23T01:15:31;15.43;;;8.45;;
79697;SDS011;69168;42.708;23.286;2024-03-23T01:17:57;16.80;;;8.82;;
79697;SDS011;69168;42.708;23.286;2024-03-23T01:20:22;16.60;;;8.35;;
79697;SDS011;69168;42.708;23.286;2024-03-23T01:22:48;17.33;;;7.50;;
79697;SDS011;69168;42.708;23.286;2024-03-23T01:25:13;12.52;;;7.65;;
79697;SDS011;69168;42.708;23.286;2024-03-23T01:27:39;15.88;;;8.45;;
79697;SDS011;69168;42.708;23.286;2024-03-23T01:30:04;14.88;;;7.65;;
79697;SDS011;69168;42.708;23.286;2024-03-23T01:32:30;17.95;;;8.55;;
79697;SDS011;69168;42.708;23.286;2024-03-23T01:34:56;15.75;;;7.43;;
79697;SDS011;69168;42.708;23.286;2024-03-23T01:37:21;17.02;;;7.47;;
79697;SDS011;69168;42.708;23.286;2024-03-23T01:39:47;13.77;;;7.30;;
79697;SDS011;69168;42.708;23.286;2024-03-23T01:42:12;11.98;;;6.95;;
79697;SDS011;69168;42.708;23.286;2024-03-23T01:44:38;16.98;;;8.30;;
79697;SDS011;69168;42.708;23.286;2024-03-23T01:47:03;15.95;;;7.43;;
79697;SDS011;69168;42.708;23.286;2024-03-23T01:49:29;16.55;;;7.20;;
79697;SDS011;69168;42.708;23.286;2024-03-23T01:51:54;14.15;;;7.40;;
79697;SDS011;69168;42.708;23.286;2024-03-23T01:54:20;13.13;;;7.22;;
79697;SDS011;69168;42.708;23.286;2024-03-23T01:56:46;16.45;;;7.07;;
79697;SDS011;69168;42.708;23.286;2024-03-23T01:59:12;14.07;;;7.03;;
79697;SDS011;69168;42.708;23.286;2024-03-23T02:01:38;13.32;;;6.78;;
79697;SDS011;69168;42.708;23.286;2024-03-23T02:04:04;14.65;;;7.05;;
79697;SDS011;69168;42.708;23.286;2024-03-23T02:06:30;13.52;;;7.43;;
79697;SDS011;69168;42.708;23.286;2024-03-23T02:08:55;13.30;;;7.55;;
79697;SDS011;69168;42.708;23.286;2024-03-23T02:11:21;10.68;;;6.43;;
79697;SDS011;69168;42.708;23.286;2024-03-23T02:13:47;13.20;;;7.72;;
79697;SDS011;69168;42.708;23.286;2024-03-23T02:16:12;14.35;;;6.60;;
79697;SDS011;69168;42.708;23.286;2024-03-23T02:18:38;13.05;;;7.07;;
79697;SDS011;69168;42.708;23.286;2024-03-23T02:21:04;14.10;;;6.93;;
79697;SDS011;69168;42.708;23.286;2024-03-23T02:23:30;13.35;;;7.68;;
79697;SDS011;69168;42.708;23.286;2024-03-23T02:25:55;13.52;;;8.23;;
79697;SDS011;69168;42.708;23.286;2024-03-23T02:28:21;19.08;;;8.38;;
79697;SDS011;69168;42.708;23.286;2024-03-23T02:30:48;13.43;;;8.00;;
79697;SDS011;69168;42.708;23.286;2024-03-23T02:33:14;16.65;;;8.95;;
79697;SDS011;69168;42.708;23.286;2024-03-23T02:35:40;18.75;;;9.70;;
79697;SDS011;69168;42.708;23.286;2024-03-23T02:38:05;16.70;;;8.80;;
79697;SDS011;69168;42.708;23.286;2024-03-23T02:40:31;17.73;;;8.45;;
79697;SDS011;69168;42.708;23.286;2024-03-23T02:42:57;15.98;;;8.63;;
79697;SDS011;69168;42.708;23.286;2024-03-23T02:45:22;16.27;;;7.72;;
79697;SDS011;69168;42.708;23.286;2024-03-23T02:47:48;12.52;;;7.30;;
79697;SDS011;69168;42.708;23.286;2024-03-23T02:50:17;11.07;;;7.07;;
79697;SDS011;69168;42.708;23.286;2024-03-23T02:52:43;13.32;;;8.25;;
79697;SDS011;69168;42.708;23.286;2024-03-23T02:55:09;11.50;;;6.95;;
79697;SDS011;69168;42.708;23.286;2024-03-23T02:57:35;15.90;;;8.27;;
79697;SDS011;69168;42.708;23.286;2024-03-23T03:00:00;16.13;;;8.75;;
79697;SDS011;69168;42.708;23.286;2024-03-23T03:02:26;13.57;;;8.40;;
79697;SDS011;69168;42.708;23.286;2024-03-23T03:04:51;17.25;;;8.77;;
79697;SDS011;69168;42.708;23.286;2024-03-23T03:07:17;13.05;;;7.82;;
79697;SDS011;69168;42.708;23.286;2024-03-23T03:09:42;12.80;;;8.02;;
79697;SDS011;69168;42.708;23.286;2024-03-23T03:12:08;14.55;;;8.13;;
79697;SDS011;69168;42.708;23.286;2024-03-23T03:14:34;17.25;;;7.80;;
79697;SDS011;69168;42.708;23.286;2024-03-23T03:17:00;15.65;;;6.97;;
79697;SDS011;69168;42.708;23.286;2024-03-23T03:19:25;18.67;;;8.45;;
79697;SDS011;69168;42.708;23.286;2024-03-23T03:21:51;10.18;;;6.43;;
79697;SDS011;69168;42.708;23.286;2024-03-23T03:24:17;18.42;;;6.82;;
79697;SDS011;69168;42.708;23.286;2024-03-23T03:26:42;15.95;;;7.18;;
79697;SDS011;69168;42.708;23.286;2024-03-23T03:29:08;12.93;;;7.63;;
79697;SDS011;69168;42.708;23.286;2024-03-23T03:31:33;12.35;;;6.15;;
79697;SDS011;69168;42.708;23.286;2024-03-23T03:33:59;15.32;;;7.38;;
79697;SDS011;69168;42.708;23.286;2024-03-23T03:36:24;15.75;;;7.05;;
79697;SDS011;69168;42.708;23.286;2024-03-23T03:38:50;14.30;;;6.22;;
79697;SDS011;69168;42.708;23.286;2024-03-23T03:41:15;13.20;;;6.70;;
79697;SDS011;69168;42.708;23.286;2024-03-23T03:43:41;13.95;;;6.45;;
79697;SDS011;69168;42.708;23.286;2024-03-23T03:46:07;12.35;;;7.03;;
79697;SDS011;69168;42.708;23.286;2024-03-23T03:48:36;11.88;;;6.47;;
79697;SDS011;69168;42.708;23.286;2024-03-23T03:51:02;13.43;;;6.28;;
79697;SDS011;69168;42.708;23.286;2024-03-23T03:53:28;13.40;;;6.30;;
79697;SDS011;69168;42.708;23.286;2024-03-23T03:55:53;10.38;;;6.03;;
79697;SDS011;69168;42.708;23.286;2024-03-23T03:58:19;15.00;;;6.20;;
79697;SDS011;69168;42.708;23.286;2024-03-23T04:00:44;10.15;;;6.00;;
79697;SDS011;69168;42.708;23.286;2024-03-23T04:03:10;12.38;;;5.90;;
79697;SDS011;69168;42.708;23.286;2024-03-23T04:05:35;14.50;;;6.20;;
79697;SDS011;69168;42.708;23.286;2024-03-23T04:08:01;10.32;;;6.35;;
79697;SDS011;69168;42.708;23.286;2024-03-23T04:10:26;12.50;;;6.07;;
79697;SDS011;69168;42.708;23.286;2024-03-23T04:12:52;14.35;;;6.70;;
79697;SDS011;69168;42.708;23.286;2024-03-23T04:15:18;12.43;;;6.50;;
79697;SDS011;69168;42.708;23.286;2024-03-23T04:17:44;19.08;;;7.07;;
79697;SDS011;69168;42.708;23.286;2024-03-23T04:20:10;11.20;;;5.80;;
79697;SDS011;69168;42.708;23.286;2024-03-23T04:22:36;11.43;;;5.90;;
79697;SDS011;69168;42.708;23.286;2024-03-23T04:25:02;9.65;;;5.57;;
79697;SDS011;69168;42.708;23.286;2024-03-23T04:27:32;12.75;;;6.28;;
79697;SDS011;69168;42.708;23.286;2024-03-23T04:29:58;13.82;;;6.43;;
79697;SDS011;69168;42.708;23.286;2024-03-23T04:32:26;12.60;;;5.53;;
79697;SDS011;69168;42.708;23.286;2024-03-23T04:34:52;12.77;;;6.32;;
79697;SDS011;69168;42.708;23.286;2024-03-23T04:37:17;16.48;;;7.40;;
79697;SDS011;69168;42.708;23.286;2024-03-23T04:39:43;16.00;;;9.05;;
79697;SDS011;69168;42.708;23.286;2024-03-23T04:42:08;16.48;;;7.18;;
79697;SDS011;69168;42.708;23.286;2024-03-23T04:44:34;12.80;;;7.20;;
79697;SDS011;69168;42.708;23.286;2024-03-23T04:47:02;13.88;;;6.60;;
79697;SDS011;69168;42.708;23.286;2024-03-23T04:49:28;19.10;;;8.05;;
79697;SDS011;69168;42.708;23.286;2024-03-23T04:51:54;20.13;;;10.55;;
79697;SDS011;69168;42.708;23.286;2024-03-23T04:54:19;20.70;;;8.35;;
79697;SDS011;69168;42.708;23.286;2024-03-23T04:56:45;14.00;;;6.78;;
79697;SDS011;69168;42.708;23.286;2024-03-23T04:59:11;12.25;;;7.63;;
79697;SDS011;69168;42.708;23.286;2024-03-23T05:01:36;13.57;;;6.78;;
79697;SDS011;69168;42.708;23.286;2024-03-23T05:04:03;12.35;;;6.80;;
79697;SDS011;69168;42.708;23.286;2024-03-23T05:06:30;15.25;;;6.65;;
79697;SDS011;69168;42.708;23.286;2024-03-23T05:08:56;11.52;;;7.07;;
79697;SDS011;69168;42.708;23.286;2024-03-23T05:11:24;17.35;;;6.68;;
79697;SDS011;69168;42.708;23.286;2024-03-23T05:13:52;15.50;;;7.90;;
79697;SDS011;69168;42.708;23.286;2024-03-23T05:16:18;13.73;;;7.20;;
79697;SDS011;69168;42.708;23.286;2024-03-23T05:18:43;13.77;;;9.13;;
79697;SDS011;69168;42.708;23.286;2024-03-23T05:21:09;11.75;;;7.18;;
79697;SDS011;69168;42.708;23.286;2024-03-23T05:23:34;24.88;;;7.90;;
79697;SDS011;69168;42.708;23.286;2024-03-23T05:26:00;23.42;;;8.82;;
79697;SDS011;69168;42.708;23.286;2024-03-23T05:28:26;16.85;;;7.80;;
79697;SDS011;69168;42.708;23.286;2024-03-23T05:30:52;13.77;;;7.75;;
79697;SDS011;69168;42.708;23.286;2024-03-23T05:33:21;15.23;;;8.23;;
79697;SDS011;69168;42.708;23.286;2024-03-23T05:35:46;18.40;;;7.80;;
79697;SDS011;69168;42.708;23.286;2024-03-23T05:38:13;21.42;;;8.70;;
79697;SDS011;69168;42.708;23.286;2024-03-23T05:40:39;17.48;;;9.07;;
79697;SDS011;69168;42.708;23.286;2024-03-23T05:43:05;18.20;;;8.10;;
79697;SDS011;69168;42.708;23.286;2024-03-23T05:45:31;14.73;;;8.27;;
79697;SDS011;69168;42.708;23.286;2024-03-23T05:47:57;14.23;;;7.10;;
79697;SDS011;69168;42.708;23.286;2024-03-23T05:50:23;14.38;;;6.32;;
79697;SDS011;69168;42.708;23.286;2024-03-23T05:52:49;14.10;;;6.30;;
79697;SDS011;69168;42.708;23.286;2024-03-23T05:55:15;12.00;;;6.15;;
79697;SDS011;69168;42.708;23.286;2024-03-23T05:57:41;13.55;;;6.10;;
79697;SDS011;69168;42.708;23.286;2024-03-23T06:00:06;16.77;;;7.05;;
79697;SDS011;69168;42.708;23.286;2024-03-23T06:02:44;14.95;;;5.85;;
79697;SDS011;69168;42.708;23.286;2024-03-23T06:05:12;12.27;;;6.35;;
79697;SDS011;69168;42.708;23.286;2024-03-23T06:07:38;12.80;;;6.45;;
79697;SDS011;69168;42.708;23.286;2024-03-23T06:10:04;15.60;;;6.50;;
79697;SDS011;69168;42.708;23.286;2024-03-23T06:12:31;14.93;;;6.93;;
79697;SDS011;69168;42.708;23.286;2024-03-23T06:14:56;17.20;;;7.28;;
79697;SDS011;69168;42.708;23.286;2024-03-23T06:17:22;16.08;;;6.93;;
79697;SDS011;69168;42.708;23.286;2024-03-23T06:19:48;14.82;;;7.82;;
79697;SDS011;69168;42.708;23.286;2024-03-23T06:22:14;12.93;;;7.38;;
79697;SDS011;69168;42.708;23.286;2024-03-23T06:24:39;15.25;;;8.15;;
79697;SDS011;69168;42.708;23.286;2024-03-23T06:27:05;24.63;;;8.88;;
79697;SDS011;69168;42.708;23.286;2024-03-23T06:29:30;19.80;;;8.32;;
79697;SDS011;69168;42.708;23.286;2024-03-23T06:31:57;17.80;;;10.05;;
79697;SDS011;69168;42.708;23.286;2024-03-23T06:34:23;21.38;;;10.65;;
79697;SDS011;69168;42.708;23.286;2024-03-23T06:36:48;20.33;;;10.13;;
79697;SDS011;69168;42.708;23.286;2024-03-23T06:39:14;16.55;;;9.75;;
79697;SDS011;69168;42.708;23.286;2024-03-23T06:41:51;16.17;;;9.00;;
79697;SDS011;69168;42.708;23.286;2024-03-23T06:44:18;16.25;;;8.93;;
79697;SDS011;69168;42.708;23.286;2024-03-23T06:46:44;16.08;;;9.38;;
79697;SDS011;69168;42.708;23.286;2024-03-23T06:49:10;19.60;;;9.75;;
79697;SDS011;69168;42.708;23.286;2024-03-23T06:51:36;17.83;;;8.77;;
79697;SDS011;69168;42.708;23.286;2024-03-23T06:54:03;17.38;;;9.73;;
79697;SDS011;69168;42.708;23.286;2024-03-23T06:56:29;16.95;;;9.23;;
79697;SDS011;69168;42.708;23.286;2024-03-23T06:58:55;19.20;;;10.50;;
79697;SDS011;69168;42.708;23.286;2024-03-23T07:01:24;18.77;;;9.05;;
79697;SDS011;69168;42.708;23.286;2024-03-23T07:03:49;16.10;;;9.48;;
79697;SDS011;69168;42.708;23.286;2024-03-23T07:06:15;14.85;;;8.85;;
79697;SDS011;69168;42.708;23.286;2024-03-23T07:08:40;19.65;;;8.98;;
79697;SDS011;69168;42.708;23.286;2024-03-23T07:11:06;15.77;;;7.63;;
79697;SDS011;69168;42.708;23.286;2024-03-23T07:13:32;13.98;;;7.82;;
79697;SDS011;69168;42.708;23.286;2024-03-23T07:15:57;20.77;;;9.07;;
79697;SDS011;69168;42.708;23.286;2024-03-23T07:18:25;21.23;;;8.80;;
79697;SDS011;69168;42.708;23.286;2024-03-23T07:20:57;17.33;;;9.77;;
79697;SDS011;69168;42.708;23.286;2024-03-23T07:23:23;15.88;;;8.65;;
79697;SDS011;69168;42.708;23.286;2024-03-23T07:28:42;15.02;;;8.07;;
79697;SDS011;69168;42.708;23.286;2024-03-23T07:31:11;15.90;;;7.20;;
79697;SDS011;69168;42.708;23.286;2024-03-23T07:33:41;15.82;;;8.25;;
79697;SDS011;69168;42.708;23.286;2024-03-23T07:36:08;16.20;;;8.43;;
79697;SDS011;69168;42.708;23.286;2024-03-23T07:38:34;17.35;;;7.13;;
79697;SDS011;69168;42.708;23.286;2024-03-23T07:41:09;13.23;;;7.38;;
79697;SDS011;69168;42.708;23.286;2024-03-23T07:43:37;14.20;;;7.80;;
79697;SDS011;69168;42.708;23.286;2024-03-23T07:46:04;21.02;;;8.63;;
79697;SDS011;69168;42.708;23.286;2024-03-23T07:48:30;17.70;;;8.88;;
79697;SDS011;69168;42.708;23.286;2024-03-23T07:51:00;19.00;;;8.07;;
79697;SDS011;69168;42.708;23.286;2024-03-23T07:53:31;18.58;;;7.72;;
79697;SDS011;69168;42.708;23.286;2024-03-23T07:56:01;15.45;;;7.10;;
79697;SDS011;69168;42.708;23.286;2024-03-23T07:58:48;13.13;;;7.07;;
79697;SDS011;69168;42.708;23.286;2024-03-23T08:01:14;14.15;;;7.35;;
79697;SDS011;69168;42.708;23.286;2024-03-23T08:03:42;14.20;;;7.00;;
79697;SDS011;69168;42.708;23.286;2024-03-23T08:06:15;14.80;;;7.13;;
79697;SDS011;69168;42.708;23.286;2024-03-23T08:08:43;14.45;;;7.45;;
79697;SDS011;69168;42.708;23.286;2024-03-23T08:11:12;13.93;;;7.63;;
79697;SDS011;69168;42.708;23.286;2024-03-23T08:13:40;15.75;;;7.28;;
79697;SDS011;69168;42.708;23.286;2024-03-23T08:16:06;14.60;;;8.10;;
79697;SDS011;69168;42.708;23.286;2024-03-23T08:18:33;15.07;;;7.45;;
79697;SDS011;69168;42.708;23.286;2024-03-23T08:21:00;16.05;;;8.75;;
79697;SDS011;69168;42.708;23.286;2024-03-23T08:23:26;13.73;;;7.57;;
79697;SDS011;69168;42.708;23.286;2024-03-23T08:25:57;14.82;;;7.78;;
79697;SDS011;69168;42.708;23.286;2024-03-23T08:28:23;13.63;;;8.10;;
79697;SDS011;69168;42.708;23.286;2024-03-23T08:30:48;16.80;;;7.75;;
79697;SDS011;69168;42.708;23.286;2024-03-23T08:33:16;14.05;;;7.53;;
79697;SDS011;69168;42.708;23.286;2024-03-23T08:35:42;16.55;;;8.88;;
79697;SDS011;69168;42.708;23.286;2024-03-23T08:38:08;15.90;;;9.25;;
79697;SDS011;69168;42.708;23.286;2024-03-23T08:40:33;15.27;;;8.15;;
79697;SDS011;69168;42.708;23.286;2024-03-23T08:42:59;14.23;;;8.52;;
79697;SDS011;69168;42.708;23.286;2024-03-23T08:45:24;19.10;;;9.52;;
79697;SDS011;69168;42.708;23.286;2024-03-23T08:47:50;16.67;;;8.25;;
79697;SDS011;69168;42.708;23.286;2024-03-23T08:50:16;19.17;;;8.40;;
79697;SDS011;69168;42.708;23.286;2024-03-23T08:52:45;15.73;;;8.52;;
79697;SDS011;69168;42.708;23.286;2024-03-23T08:55:10;13.85;;;8.35;;
79697;SDS011;69168;42.708;23.286;2024-03-23T08:57:36;18.88;;;9.40;;
79697;SDS011;69168;42.708;23.286;2024-03-23T09:00:02;14.80;;;8.63;;
79697;SDS011;69168;42.708;23.286;2024-03-23T09:02:28;17.65;;;9.65;;
79697;SDS011;69168;42.708;23.286;2024-03-23T09:04:53;15.90;;;9.18;;
79697;SDS011;69168;42.708;23.286;2024-03-23T09:07:19;20.70;;;10.35;;
79697;SDS011;69168;42.708;23.286;2024-03-23T09:09:44;17.30;;;9.30;;
79697;SDS011;69168;42.708;23.286;2024-03-23T09:12:10;17.17;;;9.00;;
79697;SDS011;69168;42.708;23.286;2024-03-23T09:14:35;16.10;;;8.85;;
79697;SDS011;69168;42.708;23.286;2024-03-23T09:17:01;16.27;;;8.95;;
79697;SDS011;69168;42.708;23.286;2024-03-23T09:19:27;15.35;;;9.13;;
79697;SDS011;69168;42.708;23.286;2024-03-23T09:21:54;16.77;;;9.27;;
79697;SDS011;69168;42.708;23.286;2024-03-23T09:24:20;16.13;;;8.63;;
79697;SDS011;69168;42.708;23.286;2024-03-23T09:26:46;19.65;;;8.38;;
79697;SDS011;69168;42.708;23.286;2024-03-23T09:29:11;14.77;;;8.48;;
79697;SDS011;69168;42.708;23.286;2024-03-23T09:31:37;19.45;;;9.23;;
79697;SDS011;69168;42.708;23.286;2024-03-23T09:34:03;13.90;;;7.97;;
79697;SDS011;69168;42.708;23.286;2024-03-23T09:36:29;19.40;;;9.30;;
79697;SDS011;69168;42.708;23.286;2024-03-23T09:38:54;16.90;;;9.50;;
79697;SDS011;69168;42.708;23.286;2024-03-23T09:41:20;19.55;;;10.65;;
79697;SDS011;69168;42.708;23.286;2024-03-23T09:43:46;18.25;;;9.70;;
79697;SDS011;69168;42.708;23.286;2024-03-23T09:46:13;16.58;;;10.27;;
79697;SDS011;69168;42.708;23.286;2024-03-23T09:48:42;28.42;;;14.00;;
79697;SDS011;69168;42.708;23.286;2024-03-23T09:51:11;21.65;;;11.95;;
79697;SDS011;69168;42.708;23.286;2024-03-23T09:53:37;19.50;;;11.23;;
79697;SDS011;69168;42.708;23.286;2024-03-23T09:56:03;18.20;;;7.95;;
79697;SDS011;69168;42.708;23.286;2024-03-23T09:58:29;15.35;;;7.95;;
79697;SDS011;69168;42.708;23.286;2024-03-23T10:00:57;17.25;;;8.25;;
79697;SDS011;69168;42.708;23.286;2024-03-23T10:03:22;13.13;;;8.20;;
79697;SDS011;69168;42.708;23.286;2024-03-23T10:05:48;22.02;;;10.57;;
79697;SDS011;69168;42.708;23.286;2024-03-23T10:08:25;17.83;;;10.50;;
79697;SDS011;69168;42.708;23.286;2024-03-23T10:10:53;22.85;;;9.65;;
79697;SDS011;69168;42.708;23.286;2024-03-23T10:13:25;17.92;;;9.25;;
79697;SDS011;69168;42.708;23.286;2024-03-23T10:15:55;17.83;;;8.68;;
79697;SDS011;69168;42.708;23.286;2024-03-23T10:18:22;26.25;;;14.43;;
79697;SDS011;69168;42.708;23.286;2024-03-23T10:20:53;22.50;;;12.75;;
79697;SDS011;69168;42.708;23.286;2024-03-23T10:23:43;14.90;;;7.85;;
79697;SDS011;69168;42.708;23.286;2024-03-23T10:26:28;17.63;;;7.93;;
79697;SDS011;69168;42.708;23.286;2024-03-23T10:31:32;12.40;;;7.93;;
79697;SDS011;69168;42.708;23.286;2024-03-23T10:33:58;11.20;;;6.97;;
79697;SDS011;69168;42.708;23.286;2024-03-23T10:36:26;14.32;;;8.02;;
79697;SDS011;69168;42.708;23.286;2024-03-23T10:38:52;16.25;;;7.90;;
79697;SDS011;69168;42.708;23.286;2024-03-23T10:41:19;17.45;;;10.07;;
79697;SDS011;69168;42.708;23.286;2024-03-23T10:43:46;15.85;;;8.40;;
79697;SDS011;69168;42.708;23.286;2024-03-23T10:46:13;15.32;;;8.85;;
79697;SDS011;69168;42.708;23.286;2024-03-23T10:48:38;12.63;;;7.78;;
79697;SDS011;69168;42.708;23.286;2024-03-23T10:51:05;65.13;;;13.20;;
79697;SDS011;69168;42.708;23.286;2024-03-23T10:53:35;17.52;;;6.72;;
79697;SDS011;69168;42.708;23.286;2024-03-23T10:56:04;20.17;;;8.60;;
79697;SDS011;69168;42.708;23.286;2024-03-23T10:58:31;14.18;;;8.23;;
79697;SDS011;69168;42.708;23.286;2024-03-23T11:00:57;11.68;;;6.43;;
79697;SDS011;69168;42.708;23.286;2024-03-23T11:05:56;10.80;;;4.75;;
79697;SDS011;69168;42.708;23.286;2024-03-23T11:08:32;10.18;;;4.38;;
79697;SDS011;69168;42.708;23.286;2024-03-23T11:13:48;15.02;;;5.25;;
79697;SDS011;69168;42.708;23.286;2024-03-23T11:18:57;9.07;;;4.57;;
79697;SDS011;69168;42.708;23.286;2024-03-23T11:22:00;10.77;;;4.95;;
79697;SDS011;69168;42.708;23.286;2024-03-23T11:24:26;8.75;;;4.47;;
79697;SDS011;69168;42.708;23.286;2024-03-23T11:26:51;6.63;;;4.47;;
79697;SDS011;69168;42.708;23.286;2024-03-23T11:29:17;8.43;;;4.72;;
79697;SDS011;69168;42.708;23.286;2024-03-23T11:31:50;10.57;;;4.85;;
79697;SDS011;69168;42.708;23.286;2024-03-23T11:34:16;10.30;;;4.60;;
79697;SDS011;69168;42.708;23.286;2024-03-23T11:36:43;11.13;;;5.82;;
79697;SDS011;69168;42.708;23.286;2024-03-23T11:42:00;10.25;;;4.93;;
79697;SDS011;69168;42.708;23.286;2024-03-23T11:44:26;8.75;;;4.00;;
79697;SDS011;69168;42.708;23.286;2024-03-23T11:46:52;6.80;;;3.78;;
79697;SDS011;69168;42.708;23.286;2024-03-23T11:49:24;8.25;;;4.10;;
79697;SDS011;69168;42.708;23.286;2024-03-23T11:51:54;10.20;;;4.15;;
79697;SDS011;69168;42.708;23.286;2024-03-23T11:54:24;8.18;;;3.83;;
79697;SDS011;69168;42.708;23.286;2024-03-23T11:56:57;7.68;;;4.20;;
79697;SDS011;69168;42.708;23.286;2024-03-23T12:02:05;11.02;;;3.85;;
79697;SDS011;69168;42.708;23.286;2024-03-23T12:04:32;5.85;;;4.20;;
79697;SDS011;69168;42.708;23.286;2024-03-23T12:09:46;10.77;;;4.55;;
79697;SDS011;69168;42.708;23.286;2024-03-23T12:12:27;6.90;;;4.20;;
79697;SDS011;69168;42.708;23.286;2024-03-23T12:15:05;4.68;;;3.75;;
79697;SDS011;69168;42.708;23.286;2024-03-23T12:17:32;6.07;;;3.75;;
79697;SDS011;69168;42.708;23.286;2024-03-23T12:19:58;7.47;;;3.70;;
79697;SDS011;69168;42.708;23.286;2024-03-23T12:22:24;10.77;;;4.53;;
79697;SDS011;69168;42.708;23.286;2024-03-23T12:24:52;7.70;;;3.75;;
79697;SDS011;69168;42.708;23.286;2024-03-23T12:27:18;8.38;;;4.72;;
79697;SDS011;69168;42.708;23.286;2024-03-23T12:29:43;7.85;;;4.10;;
79697;SDS011;69168;42.708;23.286;2024-03-23T12:32:12;7.80;;;4.10;;
79697;SDS011;69168;42.708;23.286;2024-03-23T12:34:39;4.38;;;2.78;;
79697;SDS011;69168;42.708;23.286;2024-03-23T12:37:05;2.70;;;1.70;;
79697;SDS011;69168;42.708;23.286;2024-03-23T12:39:36;2.53;;;1.50;;
79697;SDS011;69168;42.708;23.286;2024-03-23T12:42:02;4.18;;;1.90;;
79697;SDS011;69168;42.708;23.286;2024-03-23T12:44:28;1.65;;;1.40;;
79697;SDS011;69168;42.708;23.286;2024-03-23T12:46:54;2.38;;;1.63;;
79697;SDS011;69168;42.708;23.286;2024-03-23T12:49:19;1.65;;;1.50;;
79697;SDS011;69168;42.708;23.286;2024-03-23T12:51:49;3.45;;;1.50;;
79697;SDS011;69168;42.708;23.286;2024-03-23T12:54:19;1.90;;;1.27;;
79697;SDS011;69168;42.708;23.286;2024-03-23T12:56:45;3.50;;;1.23;;
79697;SDS011;69168;42.708;23.286;2024-03-23T12:59:11;4.07;;;1.50;;
79697;SDS011;69168;42.708;23.286;2024-03-23T13:01:38;3.35;;;1.40;;
79697;SDS011;69168;42.708;23.286;2024-03-23T13:04:03;2.08;;;1.65;;
79697;SDS011;69168;42.708;23.286;2024-03-23T13:06:29;3.58;;;2.15;;
79697;SDS011;69168;42.708;23.286;2024-03-23T13:08:59;3.63;;;1.77;;
79697;SDS011;69168;42.708;23.286;2024-03-23T13:11:26;3.00;;;2.05;;
79697;SDS011;69168;42.708;23.286;2024-03-23T13:13:51;4.45;;;2.30;;
79697;SDS011;69168;42.708;23.286;2024-03-23T13:16:17;1.70;;;1.40;;
79697;SDS011;69168;42.708;23.286;2024-03-23T13:18:43;1.30;;;1.15;;
79697;SDS011;69168;42.708;23.286;2024-03-23T13:21:08;1.73;;;1.30;;
79697;SDS011;69168;42.708;23.286;2024-03-23T13:23:34;2.30;;;1.20;;
79697;SDS011;69168;42.708;23.286;2024-03-23T13:26:00;2.50;;;1.33;;
79697;SDS011;69168;42.708;23.286;2024-03-23T13:28:26;5.88;;;1.35;;
79697;SDS011;69168;42.708;23.286;2024-03-23T13:33:20;2.30;;;1.35;;
79697;SDS011;69168;42.708;23.286;2024-03-23T13:35:50;2.40;;;1.30;;
79697;SDS011;69168;42.708;23.286;2024-03-23T13:38:15;2.58;;;1.42;;
79697;SDS011;69168;42.708;23.286;2024-03-23T13:40:49;4.20;;;1.73;;
79697;SDS011;69168;42.708;23.286;2024-03-23T13:43:18;2.67;;;1.80;;
79697;SDS011;69168;42.708;23.286;2024-03-23T13:45:44;1.85;;;1.63;;
79697;SDS011;69168;42.708;23.286;2024-03-23T13:48:10;3.33;;;1.88;;
79697;SDS011;69168;42.708;23.286;2024-03-23T13:50:35;2.72;;;1.70;;
79697;SDS011;69168;42.708;23.286;2024-03-23T13:53:01;3.35;;;2.25;;
79697;SDS011;69168;42.708;23.286;2024-03-23T13:55:27;3.95;;;2.58;;
79697;SDS011;69168;42.708;23.286;2024-03-23T13:57:52;2.55;;;1.92;;
79697;SDS011;69168;42.708;23.286;2024-03-23T14:00:18;4.82;;;1.70;;
79697;SDS011;69168;42.708;23.286;2024-03-23T14:02:44;2.90;;;2.08;;
79697;SDS011;69168;42.708;23.286;2024-03-23T14:05:09;3.92;;;2.10;;
79697;SDS011;69168;42.708;23.286;2024-03-23T14:07:36;2.58;;;1.73;;
79697;SDS011;69168;42.708;23.286;2024-03-23T14:10:02;5.63;;;2.35;;
79697;SDS011;69168;42.708;23.286;2024-03-23T14:12:29;3.55;;;1.80;;
79697;SDS011;69168;42.708;23.286;2024-03-23T14:14:54;2.90;;;1.90;;
79697;SDS011;69168;42.708;23.286;2024-03-23T14:17:20;2.65;;;1.90;;
79697;SDS011;69168;42.708;23.286;2024-03-23T14:19:45;1.85;;;1.58;;
79697;SDS011;69168;42.708;23.286;2024-03-23T14:22:11;2.90;;;1.73;;
79697;SDS011;69168;42.708;23.286;2024-03-23T14:24:36;5.25;;;3.17;;
79697;SDS011;69168;42.708;23.286;2024-03-23T14:27:02;4.40;;;2.92;;
79697;SDS011;69168;42.708;23.286;2024-03-23T14:29:30;5.70;;;2.88;;
79697;SDS011;69168;42.708;23.286;2024-03-23T14:31:56;4.53;;;2.20;;
79697;SDS011;69168;42.708;23.286;2024-03-23T14:34:22;3.72;;;2.22;;
79697;SDS011;69168;42.708;23.286;2024-03-23T14:36:47;5.18;;;2.33;;
79697;SDS011;69168;42.708;23.286;2024-03-23T14:39:13;4.05;;;2.28;;
79697;SDS011;69168;42.708;23.286;2024-03-23T14:41:40;4.57;;;2.10;;
79697;SDS011;69168;42.708;23.286;2024-03-23T14:44:05;4.55;;;2.05;;
79697;SDS011;69168;42.708;23.286;2024-03-23T14:46:31;3.03;;;2.30;;
79697;SDS011;69168;42.708;23.286;2024-03-23T14:48:56;3.58;;;2.65;;
79697;SDS011;69168;42.708;23.286;2024-03-23T14:51:23;4.97;;;2.55;;
79697;SDS011;69168;42.708;23.286;2024-03-23T14:53:48;3.97;;;2.28;;
79697;SDS011;69168;42.708;23.286;2024-03-23T14:56:15;3.55;;;2.17;;
79697;SDS011;69168;42.708;23.286;2024-03-23T14:58:43;4.57;;;2.35;;
79697;SDS011;69168;42.708;23.286;2024-03-23T15:01:10;3.55;;;2.20;;
79697;SDS011;69168;42.708;23.286;2024-03-23T15:03:36;5.95;;;2.33;;
79697;SDS011;69168;42.708;23.286;2024-03-23T15:06:04;3.75;;;2.33;;
79697;SDS011;69168;42.708;23.286;2024-03-23T15:08:36;3.08;;;2.00;;
79697;SDS011;69168;42.708;23.286;2024-03-23T15:11:03;4.00;;;1.98;;
79697;SDS011;69168;42.708;23.286;2024-03-23T15:13:33;3.92;;;2.60;;
79697;SDS011;69168;42.708;23.286;2024-03-23T15:16:03;4.13;;;2.40;;
79697;SDS011;69168;42.708;23.286;2024-03-23T15:18:30;4.20;;;2.30;;
79697;SDS011;69168;42.708;23.286;2024-03-23T15:20:57;6.45;;;2.40;;
79697;SDS011;69168;42.708;23.286;2024-03-23T15:23:44;2.92;;;2.33;;
79697;SDS011;69168;42.708;23.286;2024-03-23T15:26:09;4.00;;;2.00;;
79697;SDS011;69168;42.708;23.286;2024-03-23T15:28:35;6.15;;;2.53;;
79697;SDS011;69168;42.708;23.286;2024-03-23T15:31:27;3.45;;;2.38;;
79697;SDS011;69168;42.708;23.286;2024-03-23T15:33:54;7.65;;;2.70;;
79697;SDS011;69168;42.708;23.286;2024-03-23T15:36:20;4.25;;;2.63;;
79697;SDS011;69168;42.708;23.286;2024-03-23T15:38:52;6.38;;;2.60;;